No particular awareness of the weather is required.    There are no Weather-warnings


Meteo18 Weather Cam more information Meteo18 Weather Cam


Thunder radar more information blitzortung!


Rain radar more information rain snow radar


Visit our other weather sites:

Template documentation
and downloads

And another site



Weather Underground History page Text

Daily Summary for May 3, 2017 Units:  Both    English   Metric
« Previous Day
Next Day »
Daily Weekly Monthly Yearly Custom
  High: Low: Average:
Temperature: 56.7 °F /  13.7 °C 41.9 °F /  5.5 °C 48.7 °F /  9.3 °C
Dew Point: 49.1 °F /  9.5 °C 40.1 °F /  4.5 °C 45 °F /  7.2 °C
Humidity: 96 % 68 % 87 %
Wind Speed: 6 mph /  9.7 km/h - 0.8 mph /  1.3 km/h
Wind Gust: 10 mph /  16.1 km/h - -
Wind:- - SSE
Pressure: 30.1 in /  1019.5 hPa 30 in /  1017.2 hPa -
Precipitation: 0.11 in /  2.8 mm    
Historical Graphs
 
 
Tabular Data for May 3, 2017
Time Temperature Dew Point Pressure Wind Wind Speed Wind Gust Humidity Rainfall Rate (Hourly)
00:02 49.3 °F /  9.6 °C 44.6 °F /  7.0 °C 30.1 in /  1019.5 hPa Calm   3 mph /  4.8 km/h 84 % 0 in /  0.0 mm
00:07 49.5 °F /  9.7 °C 44.8 °F /  7.1 °C 30.1 in /  1019.5 hPa Calm   2 mph /  3.2 km/h 84 % 0 in /  0.0 mm
00:12 49.3 °F /  9.6 °C 44.6 °F /  7.0 °C 30.1 in /  1019.5 hPa Calm   3 mph /  4.8 km/h 84 % 0 in /  0.0 mm
00:17 48.9 °F /  9.4 °C 44.6 °F /  7.0 °C 30.1 in /  1019.5 hPa Calm   3 mph /  4.8 km/h 85 % 0 in /  0.0 mm
00:22 48.6 °F /  9.2 °C 44.2 °F /  6.8 °C 30.1 in /  1019.5 hPa Calm   1 mph /  1.6 km/h 85 % 0 in /  0.0 mm
00:32 48 °F /  8.9 °C 44.4 °F /  6.9 °C 30.1 in /  1019.5 hPa Calm   1 mph /  1.6 km/h 87 % 0 in /  0.0 mm
00:42 47.7 °F /  8.7 °C 44.2 °F /  6.8 °C 30.1 in /  1019.5 hPa West 1 mph /  1.6 km/h 2 mph /  3.2 km/h 88 % 0 in /  0.0 mm
00:47 47.7 °F /  8.7 °C 44.2 °F /  6.8 °C 30.1 in /  1019.5 hPa West 1 mph /  1.6 km/h 2 mph /  3.2 km/h 88 % 0 in /  0.0 mm
00:52 47.7 °F /  8.7 °C 44.1 °F /  6.7 °C 30.1 in /  1019.5 hPa Calm   2 mph /  3.2 km/h 87 % 0 in /  0.0 mm
00:57 47.5 °F /  8.6 °C 43.9 °F /  6.6 °C 30.1 in /  1019.5 hPa Calm   2 mph /  3.2 km/h 87 % 0 in /  0.0 mm
01:02 47.3 °F /  8.5 °C 43.7 °F /  6.5 °C 30.1 in /  1019.5 hPa Calm   2 mph /  3.2 km/h 87 % 0 in /  0.0 mm
01:07 47.1 °F /  8.4 °C 43.7 °F /  6.5 °C 30.1 in /  1019.5 hPa Calm   1 mph /  1.6 km/h 88 % 0 in /  0.0 mm
01:12 46.8 °F /  8.2 °C 43.3 °F /  6.3 °C 30.1 in /  1019.5 hPa Calm   1 mph /  1.6 km/h 88 % 0 in /  0.0 mm
01:17 46.6 °F /  8.1 °C 43.5 °F /  6.4 °C 30.1 in /  1019.5 hPa Calm   1 mph /  1.6 km/h 89 % 0 in /  0.0 mm
01:22 46.4 °F /  8.0 °C 43.3 °F /  6.3 °C 30.1 in /  1019.5 hPa Calm   2 mph /  3.2 km/h 89 % 0 in /  0.0 mm
01:27 46 °F /  7.8 °C 43 °F /  6.1 °C 30.1 in /  1019.5 hPa Calm   2 mph /  3.2 km/h 89 % 0 in /  0.0 mm
01:32 46 °F /  7.8 °C 43.3 °F /  6.3 °C 30.1 in /  1019.5 hPa Calm   2 mph /  3.2 km/h 90 % 0 in /  0.0 mm
01:37 46 °F /  7.8 °C 43.3 °F /  6.3 °C 30.1 in /  1019.5 hPa Calm   1 mph /  1.6 km/h 90 % 0 in /  0.0 mm
01:42 46 °F /  7.8 °C 43.3 °F /  6.3 °C 30.1 in /  1019.5 hPa Calm   1 mph /  1.6 km/h 90 % 0 in /  0.0 mm
01:47 46.2 °F /  7.9 °C 43.5 °F /  6.4 °C 30.1 in /  1019.5 hPa Calm   1 mph /  1.6 km/h 90 % 0 in /  0.0 mm
01:52 46.4 °F /  8.0 °C 43.7 °F /  6.5 °C 30.1 in /  1019.2 hPa Calm   1 mph /  1.6 km/h 90 % 0 in /  0.0 mm
01:57 46.4 °F /  8.0 °C 43.7 °F /  6.5 °C 30.1 in /  1019.2 hPa Calm   1 mph /  1.6 km/h 90 % 0 in /  0.0 mm
02:02 46.4 °F /  8.0 °C 43.3 °F /  6.3 °C 30.1 in /  1019.2 hPa Calm   1 mph /  1.6 km/h 89 % 0 in /  0.0 mm
02:07 46.2 °F /  7.9 °C 43.2 °F /  6.2 °C 30.1 in /  1019.2 hPa Calm   1 mph /  1.6 km/h 89 % 0 in /  0.0 mm
02:12 46.2 °F /  7.9 °C 43.5 °F /  6.4 °C 30.1 in /  1019.2 hPa Calm   1 mph /  1.6 km/h 90 % 0 in /  0.0 mm
02:17 46 °F /  7.8 °C 43 °F /  6.1 °C 30.1 in /  1019.2 hPa Calm   1 mph /  1.6 km/h 89 % 0 in /  0.0 mm
02:22 46 °F /  7.8 °C 43.3 °F /  6.3 °C 30.1 in /  1019.2 hPa Calm     90 % 0 in /  0.0 mm
02:27 45.9 °F /  7.7 °C 42.8 °F /  6.0 °C 30.1 in /  1019.2 hPa Calm     89 % 0 in /  0.0 mm
02:32 45.3 °F /  7.4 °C 42.6 °F /  5.9 °C 30.1 in /  1019.2 hPa Calm   1 mph /  1.6 km/h 90 % 0 in /  0.0 mm
02:37 45 °F /  7.2 °C 42.3 °F /  5.7 °C 30.1 in /  1019.2 hPa Calm   1 mph /  1.6 km/h 90 % 0 in /  0.0 mm
02:42 44.8 °F /  7.1 °C 42.3 °F /  5.7 °C 30.1 in /  1019.2 hPa Calm   1 mph /  1.6 km/h 91 % 0 in /  0.0 mm
02:47 44.8 °F /  7.1 °C 42.3 °F /  5.7 °C 30.1 in /  1019.2 hPa Calm   1 mph /  1.6 km/h 91 % 0 in /  0.0 mm
02:52 44.4 °F /  6.9 °C 41.9 °F /  5.5 °C 30.1 in /  1019.2 hPa Calm   1 mph /  1.6 km/h 91 % 0 in /  0.0 mm
02:57 44.2 °F /  6.8 °C 42.1 °F /  5.6 °C 30.1 in /  1019.2 hPa Calm   1 mph /  1.6 km/h 92 % 0 in /  0.0 mm
03:02 44.2 °F /  6.8 °C 42.1 °F /  5.6 °C 30.1 in /  1019.2 hPa Calm   1 mph /  1.6 km/h 92 % 0 in /  0.0 mm
03:07 43.9 °F /  6.6 °C 41.7 °F /  5.4 °C 30.1 in /  1019.2 hPa Calm   1 mph /  1.6 km/h 92 % 0 in /  0.0 mm
03:12 43.5 °F /  6.4 °C 41.4 °F /  5.2 °C 30.1 in /  1018.8 hPa Calm   1 mph /  1.6 km/h 92 % 0 in /  0.0 mm
03:22 43.9 °F /  6.6 °C 42.3 °F /  5.7 °C 30.1 in /  1018.8 hPa Calm   1 mph /  1.6 km/h 94 % 0 in /  0.0 mm
03:27 44.2 °F /  6.8 °C 42.6 °F /  5.9 °C 30.1 in /  1018.8 hPa Calm   1 mph /  1.6 km/h 94 % 0 in /  0.0 mm
03:32 44.4 °F /  6.9 °C 42.4 °F /  5.8 °C 30.1 in /  1018.8 hPa Calm   1 mph /  1.6 km/h 93 % 0 in /  0.0 mm
03:37 44.4 °F /  6.9 °C 42.4 °F /  5.8 °C 30.1 in /  1018.8 hPa Calm   1 mph /  1.6 km/h 93 % 0 in /  0.0 mm
03:42 44.6 °F /  7.0 °C 42.6 °F /  5.9 °C 30.1 in /  1018.8 hPa Calm   1 mph /  1.6 km/h 93 % 0 in /  0.0 mm
03:47 44.4 °F /  6.9 °C 42.3 °F /  5.7 °C 30.1 in /  1018.8 hPa Calm   1 mph /  1.6 km/h 92 % 0 in /  0.0 mm
03:52 44.2 °F /  6.8 °C 42.1 °F /  5.6 °C 30.1 in /  1018.8 hPa Calm     92 % 0 in /  0.0 mm
03:57 44.4 °F /  6.9 °C 42.4 °F /  5.8 °C 30.1 in /  1018.8 hPa Calm     93 % 0 in /  0.0 mm
04:02 44.2 °F /  6.8 °C 42.1 °F /  5.6 °C 30.1 in /  1018.8 hPa Calm     92 % 0 in /  0.0 mm
04:07 44.1 °F /  6.7 °C 41.9 °F /  5.5 °C 30.1 in /  1018.8 hPa Calm     92 % 0 in /  0.0 mm
04:12 44.2 °F /  6.8 °C 42.3 °F /  5.7 °C 30.1 in /  1018.8 hPa Calm     93 % 0 in /  0.0 mm
04:17 43.9 °F /  6.6 °C 41.7 °F /  5.4 °C 30.1 in /  1018.8 hPa Calm     92 % 0 in /  0.0 mm
04:22 43.5 °F /  6.4 °C 41.4 °F /  5.2 °C 30.1 in /  1018.8 hPa Calm     92 % 0 in /  0.0 mm
04:27 43.3 °F /  6.3 °C 41.5 °F /  5.3 °C 30.1 in /  1018.8 hPa Calm   1 mph /  1.6 km/h 93 % 0 in /  0.0 mm
04:32 43.5 °F /  6.4 °C 41.7 °F /  5.4 °C 30.1 in /  1018.8 hPa Calm   1 mph /  1.6 km/h 93 % 0 in /  0.0 mm
04:37 43.9 °F /  6.6 °C 42.3 °F /  5.7 °C 30.1 in /  1018.8 hPa Calm   1 mph /  1.6 km/h 94 % 0 in /  0.0 mm
04:42 44.1 °F /  6.7 °C 42.4 °F /  5.8 °C 30.1 in /  1018.8 hPa Calm     94 % 0 in /  0.0 mm
04:47 43.9 °F /  6.6 °C 41.9 °F /  5.5 °C 30.1 in /  1018.8 hPa Calm     93 % 0 in /  0.0 mm
04:52 43.7 °F /  6.5 °C 41.7 °F /  5.4 °C 30.1 in /  1018.8 hPa Calm     93 % 0 in /  0.0 mm
04:57 43.9 °F /  6.6 °C 42.3 °F /  5.7 °C 30.1 in /  1018.8 hPa Calm     94 % 0 in /  0.0 mm
05:02 43.5 °F /  6.4 °C 41.7 °F /  5.4 °C 30.1 in /  1018.8 hPa Calm     93 % 0 in /  0.0 mm
05:12 44.4 °F /  6.9 °C 42.8 °F /  6.0 °C 30.1 in /  1018.8 hPa Calm   1 mph /  1.6 km/h 94 % 0 in /  0.0 mm
05:17 44.8 °F /  7.1 °C 43.2 °F /  6.2 °C 30.1 in /  1018.8 hPa NNW 1 mph /  1.6 km/h 2 mph /  3.2 km/h 94 % 0 in /  0.0 mm
05:22 44.8 °F /  7.1 °C 42.8 °F /  6.0 °C 30.1 in /  1018.5 hPa Calm   2 mph /  3.2 km/h 93 % 0 in /  0.0 mm
05:27 45 °F /  7.2 °C 43 °F /  6.1 °C 30.1 in /  1018.5 hPa Calm   2 mph /  3.2 km/h 93 % 0 in /  0.0 mm
05:32 45 °F /  7.2 °C 43 °F /  6.1 °C 30.1 in /  1018.8 hPa Calm   1 mph /  1.6 km/h 93 % 0 in /  0.0 mm
05:37 44.8 °F /  7.1 °C 42.8 °F /  6.0 °C 30.1 in /  1018.5 hPa Calm   1 mph /  1.6 km/h 93 % 0 in /  0.0 mm
05:42 44.6 °F /  7.0 °C 42.4 °F /  5.8 °C 30.1 in /  1018.5 hPa Calm   1 mph /  1.6 km/h 92 % 0 in /  0.0 mm
05:47 44.2 °F /  6.8 °C 42.1 °F /  5.6 °C 30.1 in /  1018.5 hPa Calm     92 % 0 in /  0.0 mm
05:52 44.1 °F /  6.7 °C 41.9 °F /  5.5 °C 30.1 in /  1018.5 hPa Calm     92 % 0 in /  0.0 mm
06:02 42.8 °F /  6.0 °C 40.6 °F /  4.8 °C 30.1 in /  1018.5 hPa Calm     92 % 0 in /  0.0 mm
06:12 42.3 °F /  5.7 °C 40.1 °F /  4.5 °C 30.1 in /  1018.5 hPa Calm   1 mph /  1.6 km/h 92 % 0 in /  0.0 mm
06:17 42.1 °F /  5.6 °C 40.3 °F /  4.6 °C 30.1 in /  1018.5 hPa Calm   1 mph /  1.6 km/h 93 % 0 in /  0.0 mm
06:22 42.1 °F /  5.6 °C 40.3 °F /  4.6 °C 30.1 in /  1018.8 hPa Calm     93 % 0 in /  0.0 mm
06:32 42.1 °F /  5.6 °C 40.5 °F /  4.7 °C 30.1 in /  1018.8 hPa Calm     94 % 0 in /  0.0 mm
06:42 41.9 °F /  5.5 °C 40.3 °F /  4.6 °C 30.1 in /  1018.8 hPa Calm     94 % 0 in /  0.0 mm
06:47 42.1 °F /  5.6 °C 40.5 °F /  4.7 °C 30.1 in /  1018.8 hPa Calm     94 % 0 in /  0.0 mm
06:52 42.3 °F /  5.7 °C 40.6 °F /  4.8 °C 30.1 in /  1018.8 hPa Calm     94 % 0 in /  0.0 mm
07:02 42.3 °F /  5.7 °C 40.6 °F /  4.8 °C 30.1 in /  1018.8 hPa Calm     94 % 0 in /  0.0 mm
07:12 42.3 °F /  5.7 °C 40.6 °F /  4.8 °C 30.1 in /  1018.8 hPa Calm   1 mph /  1.6 km/h 94 % 0 in /  0.0 mm
07:17 42.4 °F /  5.8 °C 40.8 °F /  4.9 °C 30.1 in /  1018.8 hPa Calm   1 mph /  1.6 km/h 94 % 0 in /  0.0 mm
07:22 42.4 °F /  5.8 °C 41.2 °F /  5.1 °C 30.1 in /  1018.8 hPa Calm     95 % 0 in /  0.0 mm
07:27 42.4 °F /  5.8 °C 41.2 °F /  5.1 °C 30.1 in /  1018.8 hPa Calm     95 % 0 in /  0.0 mm
07:32 42.4 °F /  5.8 °C 41.2 °F /  5.1 °C 30.1 in /  1018.8 hPa Calm     95 % 0 in /  0.0 mm
07:37 42.4 °F /  5.8 °C 41.2 °F /  5.1 °C 30.1 in /  1018.8 hPa Calm     95 % 0 in /  0.0 mm
07:42 42.6 °F /  5.9 °C 41.4 °F /  5.2 °C 30.1 in /  1018.8 hPa Calm     95 % 0 in /  0.0 mm
07:47 42.6 °F /  5.9 °C 41.4 °F /  5.2 °C 30.1 in /  1018.8 hPa Calm     95 % 0 in /  0.0 mm
07:52 43 °F /  6.1 °C 41.7 °F /  5.4 °C 30.1 in /  1018.8 hPa Calm     95 % 0 in /  0.0 mm
07:57 43.2 °F /  6.2 °C 41.9 °F /  5.5 °C 30.1 in /  1018.8 hPa Calm     95 % 0 in /  0.0 mm
08:02 43.5 °F /  6.4 °C 42.3 °F /  5.7 °C 30.1 in /  1018.8 hPa Calm     95 % 0 in /  0.0 mm
08:12 44.4 °F /  6.9 °C 43.2 °F /  6.2 °C 30.1 in /  1018.8 hPa Calm     95 % 0 in /  0.0 mm
08:17 45.1 °F /  7.3 °C 43.9 °F /  6.6 °C 30.1 in /  1018.8 hPa Calm   1 mph /  1.6 km/h 95 % 0 in /  0.0 mm
08:22 45.9 °F /  7.7 °C 44.8 °F /  7.1 °C 30.1 in /  1018.8 hPa Calm   1 mph /  1.6 km/h 96 % 0 in /  0.0 mm
08:27 46.2 °F /  7.9 °C 44.8 °F /  7.1 °C 30.1 in /  1018.8 hPa Calm   1 mph /  1.6 km/h 95 % 0 in /  0.0 mm
08:32 46.9 °F /  8.3 °C 45.5 °F /  7.5 °C 30.1 in /  1018.8 hPa Calm     95 % 0 in /  0.0 mm
08:42 48 °F /  8.9 °C 46.4 °F /  8.0 °C 30.1 in /  1018.8 hPa Calm   1 mph /  1.6 km/h 94 % 0 in /  0.0 mm
08:47 48 °F /  8.9 °C 45.9 °F /  7.7 °C 30.1 in /  1018.8 hPa NE 3 mph /  4.8 km/h 4 mph /  6.4 km/h 92 % 0 in /  0.0 mm
08:57 47.7 °F /  8.7 °C 45.5 °F /  7.5 °C 30.1 in /  1018.8 hPa ENE 1 mph /  1.6 km/h 4 mph /  6.4 km/h 92 % 0 in /  0.0 mm
09:02 47.5 °F /  8.6 °C 45 °F /  7.2 °C 30.1 in /  1019.2 hPa ENE 1 mph /  1.6 km/h 4 mph /  6.4 km/h 91 % 0 in /  0.0 mm
09:12 47.8 °F /  8.8 °C 45.7 °F /  7.6 °C 30.1 in /  1019.2 hPa ENE 1 mph /  1.6 km/h 4 mph /  6.4 km/h 92 % 0 in /  0.0 mm
09:17 47.8 °F /  8.8 °C 45.7 °F /  7.6 °C 30.1 in /  1018.8 hPa Calm   3 mph /  4.8 km/h 92 % 0 in /  0.0 mm
09:22 47.8 °F /  8.8 °C 45.7 °F /  7.6 °C 30.1 in /  1019.2 hPa Calm   3 mph /  4.8 km/h 92 % 0 in /  0.0 mm
09:27 48 °F /  8.9 °C 45.9 °F /  7.7 °C 30.1 in /  1019.2 hPa Calm   2 mph /  3.2 km/h 92 % 0 in /  0.0 mm
09:32 48.4 °F /  9.1 °C 46.2 °F /  7.9 °C 30.1 in /  1019.2 hPa Calm   2 mph /  3.2 km/h 92 % 0 in /  0.0 mm
09:37 48.2 °F /  9.0 °C 45.7 °F /  7.6 °C 30.1 in /  1019.2 hPa Calm   2 mph /  3.2 km/h 91 % 0 in /  0.0 mm
09:42 48.4 °F /  9.1 °C 45.9 °F /  7.7 °C 30.1 in /  1019.2 hPa Calm   1 mph /  1.6 km/h 91 % 0 in /  0.0 mm
09:47 48.6 °F /  9.2 °C 46.4 °F /  8.0 °C 30.1 in /  1019.2 hPa SW 1 mph /  1.6 km/h 1 mph /  1.6 km/h 92 % 0 in /  0.0 mm
09:52 48.6 °F /  9.2 °C 46 °F /  7.8 °C 30.1 in /  1019.2 hPa SSW 1 mph /  1.6 km/h 2 mph /  3.2 km/h 91 % 0 in /  0.0 mm
09:57 48.6 °F /  9.2 °C 46 °F /  7.8 °C 30.1 in /  1019.2 hPa Calm   3 mph /  4.8 km/h 91 % 0 in /  0.0 mm
10:02 48.7 °F /  9.3 °C 46.2 °F /  7.9 °C 30.1 in /  1019.2 hPa Calm   3 mph /  4.8 km/h 91 % 0 in /  0.0 mm
10:07 48.9 °F /  9.4 °C 46.4 °F /  8.0 °C 30.1 in /  1019.2 hPa Calm   3 mph /  4.8 km/h 91 % 0 in /  0.0 mm
10:12 49.5 °F /  9.7 °C 46.9 °F /  8.3 °C 30.1 in /  1019.2 hPa Calm   1 mph /  1.6 km/h 91 % 0 in /  0.0 mm
10:17 49.5 °F /  9.7 °C 46.6 °F /  8.1 °C 30.1 in /  1019.2 hPa Calm     90 % 0 in /  0.0 mm
10:27 49.8 °F /  9.9 °C 46.8 °F /  8.2 °C 30.1 in /  1019.2 hPa SE 1 mph /  1.6 km/h   89 % 0 in /  0.0 mm
10:32 49.8 °F /  9.9 °C 46.8 °F /  8.2 °C 30.1 in /  1019.2 hPa Calm   2 mph /  3.2 km/h 89 % 0 in /  0.0 mm
10:37 49.8 °F /  9.9 °C 46.4 °F /  8.0 °C 30.1 in /  1019.2 hPa SSW 1 mph /  1.6 km/h 2 mph /  3.2 km/h 88 % 0 in /  0.0 mm
10:42 49.8 °F /  9.9 °C 46 °F /  7.8 °C 30.1 in /  1019.2 hPa SSW 1 mph /  1.6 km/h 3 mph /  4.8 km/h 87 % 0 in /  0.0 mm
10:47 50 °F /  10.0 °C 46.6 °F /  8.1 °C 30.1 in /  1019.2 hPa SE 1 mph /  1.6 km/h 3 mph /  4.8 km/h 88 % 0 in /  0.0 mm
10:52 50.2 °F /  10.1 °C 46.8 °F /  8.2 °C 30.1 in /  1019.2 hPa Calm   3 mph /  4.8 km/h 88 % 0 in /  0.0 mm
10:57 50.4 °F /  10.2 °C 46.6 °F /  8.1 °C 30.1 in /  1019.2 hPa SSE 2 mph /  3.2 km/h 3 mph /  4.8 km/h 87 % 0 in /  0.0 mm
11:02 50.4 °F /  10.2 °C 46.4 °F /  8.0 °C 30.1 in /  1019.2 hPa South 2 mph /  3.2 km/h 3 mph /  4.8 km/h 86 % 0 in /  0.0 mm
11:12 50.4 °F /  10.2 °C 46.4 °F /  8.0 °C 30.1 in /  1019.2 hPa SSW 2 mph /  3.2 km/h 5 mph /  8.0 km/h 86 % 0 in /  0.0 mm
11:17 50.4 °F /  10.2 °C 46 °F /  7.8 °C 30.1 in /  1019.2 hPa SW 2 mph /  3.2 km/h 5 mph /  8.0 km/h 85 % 0 in /  0.0 mm
11:22 50.5 °F /  10.3 °C 45.9 °F /  7.7 °C 30.1 in /  1019.2 hPa Calm   5 mph /  8.0 km/h 84 % 0 in /  0.0 mm
11:27 50.7 °F /  10.4 °C 45.7 °F /  7.6 °C 30.1 in /  1019.2 hPa Calm   5 mph /  8.0 km/h 83 % 0 in /  0.0 mm
11:32 51.1 °F /  10.6 °C 46 °F /  7.8 °C 30.1 in /  1019.2 hPa SSW 1 mph /  1.6 km/h 5 mph /  8.0 km/h 83 % 0 in /  0.0 mm
11:37 51.4 °F /  10.8 °C 46.8 °F /  8.2 °C 30.1 in /  1019.2 hPa Calm   4 mph /  6.4 km/h 84 % 0 in /  0.0 mm
11:42 52.2 °F /  11.2 °C 47.5 °F /  8.6 °C 30.1 in /  1019.2 hPa Calm   1 mph /  1.6 km/h 84 % 0 in /  0.0 mm
11:47 52.2 °F /  11.2 °C 47.1 °F /  8.4 °C 30.1 in /  1019.2 hPa Calm   1 mph /  1.6 km/h 83 % 0 in /  0.0 mm
11:52 52 °F /  11.1 °C 47.3 °F /  8.5 °C 30.1 in /  1018.8 hPa NE 2 mph /  3.2 km/h 2 mph /  3.2 km/h 84 % 0 in /  0.0 mm
11:57 52.2 °F /  11.2 °C 47.5 °F /  8.6 °C 30.1 in /  1018.8 hPa East 1 mph /  1.6 km/h 4 mph /  6.4 km/h 84 % 0 in /  0.0 mm
12:02 52.2 °F /  11.2 °C 46.6 °F /  8.1 °C 30.1 in /  1018.8 hPa East 1 mph /  1.6 km/h 4 mph /  6.4 km/h 81 % 0 in /  0.0 mm
12:07 52.5 °F /  11.4 °C 46.9 °F /  8.3 °C 30.1 in /  1018.8 hPa ENE 2 mph /  3.2 km/h 4 mph /  6.4 km/h 81 % 0 in /  0.0 mm
12:12 52.9 °F /  11.6 °C 47.3 °F /  8.5 °C 30.1 in /  1018.8 hPa NE 1 mph /  1.6 km/h 5 mph /  8.0 km/h 81 % 0 in /  0.0 mm
12:17 53.1 °F /  11.7 °C 47.3 °F /  8.5 °C 30.1 in /  1018.8 hPa Calm   5 mph /  8.0 km/h 81 % 0 in /  0.0 mm
12:22 53.2 °F /  11.8 °C 46.6 °F /  8.1 °C 30.1 in /  1018.8 hPa Calm   5 mph /  8.0 km/h 78 % 0 in /  0.0 mm
12:27 53.8 °F /  12.1 °C 47.1 °F /  8.4 °C 30.1 in /  1018.8 hPa NNE 3 mph /  4.8 km/h 5 mph /  8.0 km/h 78 % 0 in /  0.0 mm
12:32 54 °F /  12.2 °C 47.3 °F /  8.5 °C 30.1 in /  1018.8 hPa Calm   5 mph /  8.0 km/h 78 % 0 in /  0.0 mm
12:42 55.6 °F /  13.1 °C 47.1 °F /  8.4 °C 30.1 in /  1018.8 hPa NNW 2 mph /  3.2 km/h 4 mph /  6.4 km/h 73 % 0 in /  0.0 mm
12:47 55.2 °F /  12.9 °C 47.1 °F /  8.4 °C 30.1 in /  1018.8 hPa Calm   4 mph /  6.4 km/h 74 % 0 in /  0.0 mm
12:52 55.6 °F /  13.1 °C 46.4 °F /  8.0 °C 30.1 in /  1018.8 hPa NNE 2 mph /  3.2 km/h 4 mph /  6.4 km/h 71 % 0 in /  0.0 mm
12:57 54.7 °F /  12.6 °C 46.9 °F /  8.3 °C 30.1 in /  1018.8 hPa NNW 6 mph /  9.7 km/h 9 mph /  14.5 km/h 75 % 0 in /  0.0 mm
13:02 53.2 °F /  11.8 °C 47.3 °F /  8.5 °C 30.1 in /  1018.8 hPa NNW 6 mph /  9.7 km/h 9 mph /  14.5 km/h 80 % 0 in /  0.0 mm
13:12 51.6 °F /  10.9 °C 46.9 °F /  8.3 °C 30.1 in /  1018.8 hPa Calm   9 mph /  14.5 km/h 84 % 0.02 in /  0.5 mm
13:17 51.3 °F /  10.7 °C 46.9 °F /  8.3 °C 30.1 in /  1018.8 hPa NNE 2 mph /  3.2 km/h 6 mph /  9.7 km/h 85 % 0.02 in /  0.5 mm
13:22 50.5 °F /  10.3 °C 46.2 °F /  7.9 °C 30.1 in /  1018.8 hPa NNE 2 mph /  3.2 km/h 5 mph /  8.0 km/h 85 % 0.03 in /  0.8 mm
13:27 50.4 °F /  10.2 °C 45.7 °F /  7.6 °C 30.1 in /  1018.8 hPa NNE 4 mph /  6.4 km/h 7 mph /  11.3 km/h 84 % 0.04 in /  1.0 mm
13:32 50.2 °F /  10.1 °C 45.5 °F /  7.5 °C 30.1 in /  1018.8 hPa NE 4 mph /  6.4 km/h 7 mph /  11.3 km/h 84 % 0.04 in /  1.0 mm
13:37 50.2 °F /  10.1 °C 45.9 °F /  7.7 °C 30.1 in /  1018.8 hPa NNE 2 mph /  3.2 km/h 7 mph /  11.3 km/h 85 % 0.04 in /  1.0 mm
13:42 50.4 °F /  10.2 °C 46 °F /  7.8 °C 30.1 in /  1018.8 hPa NE 4 mph /  6.4 km/h 6 mph /  9.7 km/h 85 % 0.04 in /  1.0 mm
13:47 50.4 °F /  10.2 °C 46 °F /  7.8 °C 30.1 in /  1018.5 hPa NE 1 mph /  1.6 km/h 6 mph /  9.7 km/h 85 % 0.04 in /  1.0 mm
13:52 50.5 °F /  10.3 °C 46.2 °F /  7.9 °C 30.1 in /  1018.5 hPa NE 4 mph /  6.4 km/h 6 mph /  9.7 km/h 85 % 0.04 in /  1.0 mm
13:57 51.1 °F /  10.6 °C 47.1 °F /  8.4 °C 30.1 in /  1018.5 hPa Calm   5 mph /  8.0 km/h 86 % 0.04 in /  1.0 mm
14:02 51.6 °F /  10.9 °C 47.5 °F /  8.6 °C 30.1 in /  1018.5 hPa Calm   5 mph /  8.0 km/h 86 % 0.04 in /  1.0 mm
14:07 52 °F /  11.1 °C 47.7 °F /  8.7 °C 30.1 in /  1018.5 hPa NW 3 mph /  4.8 km/h 5 mph /  8.0 km/h 85 % 0.02 in /  0.5 mm
14:12 52.2 °F /  11.2 °C 47.5 °F /  8.6 °C 30.1 in /  1018.5 hPa Calm   8 mph /  12.9 km/h 84 % 0.02 in /  0.5 mm
14:17 52.2 °F /  11.2 °C 47.1 °F /  8.4 °C 30.1 in /  1018.5 hPa Calm   8 mph /  12.9 km/h 83 % 0.01 in /  0.3 mm
14:22 52 °F /  11.1 °C 46.4 °F /  8.0 °C 30.1 in /  1018.8 hPa Calm   8 mph /  12.9 km/h 81 % 0.01 in /  0.3 mm
14:27 52 °F /  11.1 °C 46.4 °F /  8.0 °C 30.1 in /  1018.5 hPa ESE 2 mph /  3.2 km/h 5 mph /  8.0 km/h 81 % 0 in /  0.0 mm
14:32 51.8 °F /  11.0 °C 46.8 °F /  8.2 °C 30.1 in /  1018.5 hPa East 2 mph /  3.2 km/h 3 mph /  4.8 km/h 83 % 0 in /  0.0 mm
14:37 51.6 °F /  10.9 °C 46.6 °F /  8.1 °C 30.1 in /  1018.5 hPa Calm   4 mph /  6.4 km/h 83 % 0 in /  0.0 mm
14:42 52.2 °F /  11.2 °C 47.5 °F /  8.6 °C 30.1 in /  1018.5 hPa ENE 1 mph /  1.6 km/h 4 mph /  6.4 km/h 84 % 0 in /  0.0 mm
14:47 51.8 °F /  11.0 °C 46.8 °F /  8.2 °C 30.1 in /  1018.5 hPa Calm   2 mph /  3.2 km/h 83 % 0 in /  0.0 mm
14:52 52 °F /  11.1 °C 47.3 °F /  8.5 °C 30.1 in /  1018.2 hPa NE 2 mph /  3.2 km/h 2 mph /  3.2 km/h 84 % 0 in /  0.0 mm
14:57 52.2 °F /  11.2 °C 47.5 °F /  8.6 °C 30.1 in /  1018.2 hPa NNE 2 mph /  3.2 km/h 3 mph /  4.8 km/h 84 % 0 in /  0.0 mm
15:02 52.7 °F /  11.5 °C 48 °F /  8.9 °C 30.1 in /  1018.2 hPa NNE 5 mph /  8.0 km/h 5 mph /  8.0 km/h 84 % 0 in /  0.0 mm
15:07 53.1 °F /  11.7 °C 47.7 °F /  8.7 °C 30.1 in /  1017.8 hPa North 4 mph /  6.4 km/h 9 mph /  14.5 km/h 82 % 0 in /  0.0 mm
15:12 53.2 °F /  11.8 °C 47.5 °F /  8.6 °C 30.1 in /  1017.8 hPa North 4 mph /  6.4 km/h 10 mph /  16.1 km/h 81 % 0 in /  0.0 mm
15:17 53.8 °F /  12.1 °C 48.4 °F /  9.1 °C 30.1 in /  1017.8 hPa NNW 4 mph /  6.4 km/h 10 mph /  16.1 km/h 82 % 0 in /  0.0 mm
15:22 54.1 °F /  12.3 °C 49.1 °F /  9.5 °C 30.1 in /  1017.8 hPa NNW 3 mph /  4.8 km/h 10 mph /  16.1 km/h 83 % 0 in /  0.0 mm
15:27 54.1 °F /  12.3 °C 47.1 °F /  8.4 °C 30.1 in /  1017.8 hPa NE 3 mph /  4.8 km/h 9 mph /  14.5 km/h 77 % 0 in /  0.0 mm
15:32 54.7 °F /  12.6 °C 48 °F /  8.9 °C 30.1 in /  1017.8 hPa North 4 mph /  6.4 km/h 8 mph /  12.9 km/h 78 % 0 in /  0.0 mm
15:37 54.9 °F /  12.7 °C 47.5 °F /  8.6 °C 30.1 in /  1017.8 hPa North 4 mph /  6.4 km/h 8 mph /  12.9 km/h 76 % 0 in /  0.0 mm
15:42 54.9 °F /  12.7 °C 47.5 °F /  8.6 °C 30.1 in /  1017.8 hPa West 2 mph /  3.2 km/h 7 mph /  11.3 km/h 76 % 0 in /  0.0 mm
15:47 55.2 °F /  12.9 °C 47.1 °F /  8.4 °C 30.1 in /  1017.8 hPa NE 1 mph /  1.6 km/h 7 mph /  11.3 km/h 74 % 0 in /  0.0 mm
15:52 55.6 °F /  13.1 °C 48.2 °F /  9.0 °C 30.1 in /  1017.8 hPa Calm   5 mph /  8.0 km/h 76 % 0 in /  0.0 mm
15:57 55.8 °F /  13.2 °C 46.9 °F /  8.3 °C 30.1 in /  1017.8 hPa NNW 1 mph /  1.6 km/h 4 mph /  6.4 km/h 72 % 0 in /  0.0 mm
16:02 55.8 °F /  13.2 °C 47.7 °F /  8.7 °C 30.1 in /  1017.8 hPa West 2 mph /  3.2 km/h 4 mph /  6.4 km/h 74 % 0 in /  0.0 mm
16:07 55.6 °F /  13.1 °C 46.8 °F /  8.2 °C 30.1 in /  1017.8 hPa North 4 mph /  6.4 km/h 4 mph /  6.4 km/h 72 % 0 in /  0.0 mm
16:12 55.6 °F /  13.1 °C 46.8 °F /  8.2 °C 30.1 in /  1017.8 hPa NW 1 mph /  1.6 km/h 4 mph /  6.4 km/h 72 % 0 in /  0.0 mm
16:17 55.8 °F /  13.2 °C 46.9 °F /  8.3 °C 30.1 in /  1017.8 hPa Calm   4 mph /  6.4 km/h 72 % 0 in /  0.0 mm
16:22 55.6 °F /  13.1 °C 46 °F /  7.8 °C 30.1 in /  1017.8 hPa Calm   4 mph /  6.4 km/h 70 % 0 in /  0.0 mm
16:27 55.8 °F /  13.2 °C 46.6 °F /  8.1 °C 30.1 in /  1017.8 hPa Calm   3 mph /  4.8 km/h 71 % 0 in /  0.0 mm
16:32 56.3 °F /  13.5 °C 45.9 °F /  7.7 °C 30.1 in /  1017.8 hPa Calm   3 mph /  4.8 km/h 68 % 0 in /  0.0 mm
16:37 56.3 °F /  13.5 °C 45.9 °F /  7.7 °C 30.1 in /  1017.8 hPa Calm   2 mph /  3.2 km/h 68 % 0 in /  0.0 mm
16:42 56.7 °F /  13.7 °C 46.6 °F /  8.1 °C 30.1 in /  1017.5 hPa Calm   1 mph /  1.6 km/h 69 % 0 in /  0.0 mm
16:47 56.3 °F /  13.5 °C 46.2 °F /  7.9 °C 30.1 in /  1017.5 hPa Calm   2 mph /  3.2 km/h 69 % 0 in /  0.0 mm
16:52 56.5 °F /  13.6 °C 46.8 °F /  8.2 °C 30.1 in /  1017.5 hPa Calm   2 mph /  3.2 km/h 70 % 0 in /  0.0 mm
16:57 56.7 °F /  13.7 °C 46.2 °F /  7.9 °C 30.1 in /  1017.5 hPa SW 1 mph /  1.6 km/h 2 mph /  3.2 km/h 68 % 0 in /  0.0 mm
17:02 56.3 °F /  13.5 °C 46.2 °F /  7.9 °C 30.1 in /  1017.5 hPa Calm   2 mph /  3.2 km/h 69 % 0 in /  0.0 mm
17:12 56.1 °F /  13.4 °C 48 °F /  8.9 °C 30.1 in /  1017.5 hPa ESE 1 mph /  1.6 km/h 2 mph /  3.2 km/h 74 % 0 in /  0.0 mm
17:17 55.9 °F /  13.3 °C 48.6 °F /  9.2 °C 30.1 in /  1017.5 hPa ESE 1 mph /  1.6 km/h 3 mph /  4.8 km/h 76 % 0 in /  0.0 mm
17:22 55.6 °F /  13.1 °C 48.6 °F /  9.2 °C 30.1 in /  1017.5 hPa SSW 2 mph /  3.2 km/h 4 mph /  6.4 km/h 77 % 0 in /  0.0 mm
17:27 55.2 °F /  12.9 °C 48.6 °F /  9.2 °C 30.1 in /  1017.5 hPa SSE 1 mph /  1.6 km/h 4 mph /  6.4 km/h 78 % 0 in /  0.0 mm
17:32 55.2 °F /  12.9 °C 48.6 °F /  9.2 °C 30.1 in /  1017.5 hPa SSW 1 mph /  1.6 km/h 4 mph /  6.4 km/h 78 % 0 in /  0.0 mm
17:37 55 °F /  12.8 °C 48.4 °F /  9.1 °C 30.1 in /  1017.5 hPa SSW 1 mph /  1.6 km/h 4 mph /  6.4 km/h 78 % 0 in /  0.0 mm
17:42 55 °F /  12.8 °C 48.6 °F /  9.2 °C 30.1 in /  1017.5 hPa SE 2 mph /  3.2 km/h 4 mph /  6.4 km/h 79 % 0 in /  0.0 mm
17:47 55 °F /  12.8 °C 48 °F /  8.9 °C 30.1 in /  1017.5 hPa Calm   4 mph /  6.4 km/h 77 % 0 in /  0.0 mm
17:52 54.9 °F /  12.7 °C 47.8 °F /  8.8 °C 30.1 in /  1017.5 hPa SE 2 mph /  3.2 km/h 4 mph /  6.4 km/h 77 % 0 in /  0.0 mm
17:57 54.9 °F /  12.7 °C 48.2 °F /  9.0 °C 30 in /  1017.2 hPa SSE 3 mph /  4.8 km/h 4 mph /  6.4 km/h 78 % 0 in /  0.0 mm
18:02 54.7 °F /  12.6 °C 47.3 °F /  8.5 °C 30 in /  1017.2 hPa SW 3 mph /  4.8 km/h 7 mph /  11.3 km/h 76 % 0 in /  0.0 mm
18:07 54.7 °F /  12.6 °C 48.4 °F /  9.1 °C 30 in /  1017.2 hPa SW 3 mph /  4.8 km/h 7 mph /  11.3 km/h 79 % 0 in /  0.0 mm
18:17 54.3 °F /  12.4 °C 45.5 °F /  7.5 °C 30 in /  1017.2 hPa SW 1 mph /  1.6 km/h 7 mph /  11.3 km/h 72 % 0 in /  0.0 mm
18:22 54.5 °F /  12.5 °C 46 °F /  7.8 °C 30 in /  1017.2 hPa SW 2 mph /  3.2 km/h 7 mph /  11.3 km/h 73 % 0 in /  0.0 mm
18:27 54.5 °F /  12.5 °C 45.7 °F /  7.6 °C 30 in /  1017.2 hPa SSW 3 mph /  4.8 km/h 7 mph /  11.3 km/h 72 % 0 in /  0.0 mm
18:37 54.3 °F /  12.4 °C 46.2 °F /  7.9 °C 30 in /  1017.2 hPa SW 3 mph /  4.8 km/h 7 mph /  11.3 km/h 74 % 0 in /  0.0 mm
18:42 54.3 °F /  12.4 °C 46.2 °F /  7.9 °C 30.1 in /  1017.5 hPa SW 3 mph /  4.8 km/h 7 mph /  11.3 km/h 74 % 0 in /  0.0 mm
18:47 54.1 °F /  12.3 °C 46.4 °F /  8.0 °C 30.1 in /  1017.5 hPa SW 1 mph /  1.6 km/h 7 mph /  11.3 km/h 75 % 0 in /  0.0 mm
18:52 54.1 °F /  12.3 °C 46.8 °F /  8.2 °C 30.1 in /  1017.5 hPa WSW 1 mph /  1.6 km/h 5 mph /  8.0 km/h 76 % 0 in /  0.0 mm
18:57 54 °F /  12.2 °C 46.6 °F /  8.1 °C 30.1 in /  1017.5 hPa WSW 2 mph /  3.2 km/h 4 mph /  6.4 km/h 76 % 0 in /  0.0 mm
19:02 53.2 °F /  11.8 °C 45.9 °F /  7.7 °C 30.1 in /  1017.5 hPa NE 3 mph /  4.8 km/h 3 mph /  4.8 km/h 76 % 0 in /  0.0 mm
19:07 52.2 °F /  11.2 °C 46.2 °F /  7.9 °C 30.1 in /  1017.5 hPa Calm   8 mph /  12.9 km/h 80 % 0 in /  0.0 mm
19:12 51.6 °F /  10.9 °C 46 °F /  7.8 °C 30.1 in /  1017.5 hPa NNE 4 mph /  6.4 km/h 8 mph /  12.9 km/h 81 % 0 in /  0.0 mm
19:17 51.1 °F /  10.6 °C 45.5 °F /  7.5 °C 30.1 in /  1017.5 hPa North 3 mph /  4.8 km/h 8 mph /  12.9 km/h 81 % 0 in /  0.0 mm
19:22 50.5 °F /  10.3 °C 45.3 °F /  7.4 °C 30.1 in /  1017.5 hPa NNE 1 mph /  1.6 km/h 8 mph /  12.9 km/h 82 % 0 in /  0.0 mm
19:32 49.8 °F /  9.9 °C 45.1 °F /  7.3 °C 30.1 in /  1017.5 hPa North 4 mph /  6.4 km/h 7 mph /  11.3 km/h 84 % 0 in /  0.0 mm
19:37 49.5 °F /  9.7 °C 45.1 °F /  7.3 °C 30.1 in /  1017.5 hPa NNW 3 mph /  4.8 km/h 7 mph /  11.3 km/h 85 % 0 in /  0.0 mm
19:42 49.3 °F /  9.6 °C 45 °F /  7.2 °C 30.1 in /  1017.5 hPa NW 3 mph /  4.8 km/h 7 mph /  11.3 km/h 85 % 0 in /  0.0 mm
19:47 48.9 °F /  9.4 °C 45 °F /  7.2 °C 30.1 in /  1017.8 hPa NNW 3 mph /  4.8 km/h 6 mph /  9.7 km/h 86 % 0 in /  0.0 mm
19:57 48.6 °F /  9.2 °C 44.8 °F /  7.1 °C 30.1 in /  1017.8 hPa NNW 3 mph /  4.8 km/h 8 mph /  12.9 km/h 87 % 0 in /  0.0 mm
20:02 48.6 °F /  9.2 °C 45.1 °F /  7.3 °C 30.1 in /  1017.8 hPa NW 1 mph /  1.6 km/h 8 mph /  12.9 km/h 88 % 0 in /  0.0 mm
20:07 48.4 °F /  9.1 °C 45 °F /  7.2 °C 30.1 in /  1017.8 hPa NW 1 mph /  1.6 km/h 7 mph /  11.3 km/h 88 % 0 in /  0.0 mm
20:12 48.4 °F /  9.1 °C 45.3 °F /  7.4 °C 30.1 in /  1017.8 hPa NNW 1 mph /  1.6 km/h 5 mph /  8.0 km/h 89 % 0 in /  0.0 mm
20:17 48 °F /  8.9 °C 45 °F /  7.2 °C 30.1 in /  1017.8 hPa NNW 2 mph /  3.2 km/h 5 mph /  8.0 km/h 89 % 0.01 in /  0.3 mm
20:27 47.8 °F /  8.8 °C 45 °F /  7.2 °C 30.1 in /  1017.8 hPa Calm   5 mph /  8.0 km/h 90 % 0.02 in /  0.5 mm
20:32 47.7 °F /  8.7 °C 45 °F /  7.2 °C 30.1 in /  1017.8 hPa NNE 1 mph /  1.6 km/h 5 mph /  8.0 km/h 90 % 0.02 in /  0.5 mm
20:42 47.5 °F /  8.6 °C 45 °F /  7.2 °C 30.1 in /  1017.5 hPa NNE 3 mph /  4.8 km/h 5 mph /  8.0 km/h 91 % 0.04 in /  1.0 mm
20:47 47.5 °F /  8.6 °C 45.3 °F /  7.4 °C 30.1 in /  1017.8 hPa NNE 2 mph /  3.2 km/h 6 mph /  9.7 km/h 92 % 0.05 in /  1.3 mm
20:52 47.5 °F /  8.6 °C 45.3 °F /  7.4 °C 30.1 in /  1017.8 hPa NNW 1 mph /  1.6 km/h 6 mph /  9.7 km/h 92 % 0.05 in /  1.3 mm
20:57 47.5 °F /  8.6 °C 45.3 °F /  7.4 °C 30.1 in /  1017.8 hPa Calm   6 mph /  9.7 km/h 92 % 0.05 in /  1.3 mm
21:02 47.3 °F /  8.5 °C 45.1 °F /  7.3 °C 30.1 in /  1017.8 hPa Calm   5 mph /  8.0 km/h 92 % 0.05 in /  1.3 mm
21:07 47.3 °F /  8.5 °C 45.3 °F /  7.4 °C 30.1 in /  1017.8 hPa Calm   3 mph /  4.8 km/h 93 % 0.05 in /  1.3 mm
21:12 47.3 °F /  8.5 °C 45.3 °F /  7.4 °C 30.1 in /  1017.8 hPa NNW 1 mph /  1.6 km/h 3 mph /  4.8 km/h 93 % 0.04 in /  1.0 mm
21:22 47.1 °F /  8.4 °C 45.1 °F /  7.3 °C 30.1 in /  1017.8 hPa Calm   2 mph /  3.2 km/h 93 % 0.03 in /  0.8 mm
21:27 47.3 °F /  8.5 °C 45.3 °F /  7.4 °C 30.1 in /  1017.8 hPa Calm   2 mph /  3.2 km/h 93 % 0.03 in /  0.8 mm
21:32 47.1 °F /  8.4 °C 45.1 °F /  7.3 °C 30.1 in /  1017.8 hPa Calm   2 mph /  3.2 km/h 93 % 0.03 in /  0.8 mm
21:37 47.1 °F /  8.4 °C 45.1 °F /  7.3 °C 30.1 in /  1017.8 hPa Calm   1 mph /  1.6 km/h 93 % 0.02 in /  0.5 mm
21:42 47.1 °F /  8.4 °C 45.1 °F /  7.3 °C 30.1 in /  1017.8 hPa Calm   1 mph /  1.6 km/h 93 % 0.02 in /  0.5 mm
21:47 47.1 °F /  8.4 °C 45.1 °F /  7.3 °C 30.1 in /  1017.8 hPa Calm   1 mph /  1.6 km/h 93 % 0.01 in /  0.3 mm
21:52 46.9 °F /  8.3 °C 45.3 °F /  7.4 °C 30.1 in /  1017.8 hPa Calm   1 mph /  1.6 km/h 94 % 0.01 in /  0.3 mm
21:57 46.9 °F /  8.3 °C 45.3 °F /  7.4 °C 30.1 in /  1017.8 hPa Calm   1 mph /  1.6 km/h 94 % 0.02 in /  0.5 mm
22:02 46.9 °F /  8.3 °C 45.3 °F /  7.4 °C 30.1 in /  1017.8 hPa Calm   1 mph /  1.6 km/h 94 % 0.02 in /  0.5 mm
22:12 46.9 °F /  8.3 °C 45.3 °F /  7.4 °C 30.1 in /  1017.8 hPa Calm     94 % 0.02 in /  0.5 mm
22:17 46.9 °F /  8.3 °C 45.3 °F /  7.4 °C 30.1 in /  1017.8 hPa Calm     94 % 0.02 in /  0.5 mm
22:22 46.9 °F /  8.3 °C 45.3 °F /  7.4 °C 30.1 in /  1017.8 hPa Calm     94 % 0.02 in /  0.5 mm
22:27 46.9 °F /  8.3 °C 45.3 °F /  7.4 °C 30.1 in /  1018.2 hPa Calm   1 mph /  1.6 km/h 94 % 0.02 in /  0.5 mm
22:32 46.9 °F /  8.3 °C 45.3 °F /  7.4 °C 30.1 in /  1017.8 hPa Calm   1 mph /  1.6 km/h 94 % 0.01 in /  0.3 mm
22:37 46.9 °F /  8.3 °C 45.3 °F /  7.4 °C 30.1 in /  1017.8 hPa NNE 1 mph /  1.6 km/h 1 mph /  1.6 km/h 94 % 0.02 in /  0.5 mm
22:42 46.9 °F /  8.3 °C 45.3 °F /  7.4 °C 30.1 in /  1017.8 hPa NE 1 mph /  1.6 km/h 1 mph /  1.6 km/h 94 % 0.02 in /  0.5 mm
22:52 46.8 °F /  8.2 °C 45.1 °F /  7.3 °C 30.1 in /  1017.8 hPa Calm   2 mph /  3.2 km/h 94 % 0.02 in /  0.5 mm
22:57 46.8 °F /  8.2 °C 45.3 °F /  7.4 °C 30.1 in /  1017.8 hPa Calm   2 mph /  3.2 km/h 95 % 0.01 in /  0.3 mm
23:02 46.8 °F /  8.2 °C 45.3 °F /  7.4 °C 30.1 in /  1017.8 hPa NNE 1 mph /  1.6 km/h 2 mph /  3.2 km/h 95 % 0.01 in /  0.3 mm
23:12 46.8 °F /  8.2 °C 45.3 °F /  7.4 °C 30.1 in /  1017.8 hPa NE 3 mph /  4.8 km/h 5 mph /  8.0 km/h 95 % 0.01 in /  0.3 mm
23:17 46.8 °F /  8.2 °C 45.3 °F /  7.4 °C 30.1 in /  1017.8 hPa NNE 2 mph /  3.2 km/h 5 mph /  8.0 km/h 95 % 0.01 in /  0.3 mm
23:22 46.8 °F /  8.2 °C 45.3 °F /  7.4 °C 30.1 in /  1017.8 hPa NE 2 mph /  3.2 km/h 5 mph /  8.0 km/h 95 % 0.01 in /  0.3 mm
23:27 46.8 °F /  8.2 °C 45.3 °F /  7.4 °C 30.1 in /  1017.8 hPa Calm   5 mph /  8.0 km/h 95 % 0.01 in /  0.3 mm
23:32 46.8 °F /  8.2 °C 45.3 °F /  7.4 °C 30.1 in /  1017.8 hPa Calm   4 mph /  6.4 km/h 95 % 0 in /  0.0 mm
23:37 46.6 °F /  8.1 °C 45.1 °F /  7.3 °C 30.1 in /  1017.8 hPa Calm   4 mph /  6.4 km/h 95 % 0 in /  0.0 mm
23:42 46.6 °F /  8.1 °C 45.1 °F /  7.3 °C 30.1 in /  1017.8 hPa Calm   3 mph /  4.8 km/h 95 % 0 in /  0.0 mm
23:47 46.6 °F /  8.1 °C 45.1 °F /  7.3 °C 30.1 in /  1017.8 hPa Calm   2 mph /  3.2 km/h 95 % 0 in /  0.0 mm
23:52 46.6 °F /  8.1 °C 45.1 °F /  7.3 °C 30.1 in /  1017.8 hPa NNE 1 mph /  1.6 km/h 2 mph /  3.2 km/h 95 % 0 in /  0.0 mm
23:57 46.6 °F /  8.1 °C 45.1 °F /  7.3 °C 30.1 in /  1017.8 hPa Calm   3 mph /  4.8 km/h 95 % 0 in /  0.0 mm
Meteo18
Compliments of Weather Underground - 4 mb

Script developed by  Jim McMurry - jmcmurry@mwt.net Adapted for the template by  Wim van der Kuil - Leuven-Template.eu

You find our weather info also at:

European Weather Network

Weather Underground

Equipment we use:

Weather-station
Davis Vue

Weather-program
Meteohub

Weather-server
Raspberry PI 2 B+

Provider
1 and 1

Davis Vue

Meteohub

Raspberry PI 2 B+

1 and 1